createdAt,value
2019-01-11T00:01:21.831Z,20.97
2019-01-11T00:03:52.224Z,20.00
2019-01-11T00:06:22.968Z,20.53
2019-01-11T00:08:53.912Z,20.53
2019-01-11T00:11:24.540Z,20.57
2019-01-11T00:13:54.974Z,21.23
2019-01-11T00:16:26.199Z,19.57
2019-01-11T00:18:57.079Z,20.53
2019-01-11T00:21:27.822Z,20.83
2019-01-11T00:23:58.568Z,20.90
2019-01-11T00:26:29.291Z,19.83
2019-01-11T00:29:01.480Z,22.03
2019-01-11T00:31:32.496Z,18.30
2019-01-11T00:34:05.259Z,18.77
2019-01-11T00:36:36.258Z,19.20
2019-01-11T00:39:09.252Z,19.30
2019-01-11T00:41:39.969Z,17.03
2019-01-11T00:44:11.112Z,19.43
2019-01-11T00:46:42.696Z,17.50
2019-01-11T00:49:14.687Z,17.10
2019-01-11T00:51:45.498Z,14.70
2019-01-11T00:54:16.457Z,16.80
2019-01-11T00:56:47.569Z,16.83
2019-01-11T00:59:18.454Z,15.33
2019-01-11T01:01:48.945Z,18.23
2019-01-11T01:04:19.581Z,16.00
2019-01-11T01:06:50.003Z,16.17
2019-01-11T01:09:20.781Z,16.07
2019-01-11T01:11:51.947Z,16.40
2019-01-11T01:14:22.542Z,16.03
2019-01-11T01:16:54.373Z,15.40
2019-01-11T01:19:25.004Z,17.07
2019-01-11T01:21:55.652Z,16.07
2019-01-11T01:24:26.099Z,16.87
2019-01-11T01:26:57.543Z,15.90
2019-01-11T01:29:28.384Z,16.37
2019-01-11T01:31:58.750Z,17.60
2019-01-11T01:34:29.314Z,14.80
2019-01-11T01:37:03.501Z,17.50
2019-01-11T01:39:34.537Z,16.33
2019-01-11T01:42:05.136Z,16.40
2019-01-11T01:44:36.596Z,16.10
2019-01-11T01:47:07.274Z,18.53
2019-01-11T01:49:37.823Z,15.90
2019-01-11T01:52:08.697Z,17.10
2019-01-11T01:54:39.248Z,17.30
2019-01-11T01:57:10.056Z,17.47
2019-01-11T01:59:40.603Z,16.70
2019-01-11T02:02:12.933Z,15.80
2019-01-11T02:04:43.652Z,16.40
2019-01-11T02:07:14.254Z,14.90
2019-01-11T02:09:44.805Z,15.17
2019-01-11T02:12:15.484Z,15.73
2019-01-11T02:14:49.820Z,16.83
2019-01-11T02:17:20.392Z,16.37
2019-01-11T02:19:51.398Z,16.50
2019-01-11T02:22:22.663Z,15.00
2019-01-11T02:24:54.131Z,15.53
2019-01-11T02:27:24.711Z,13.83
2019-01-11T02:29:56.028Z,14.40
2019-01-11T02:32:27.188Z,13.97
2019-01-11T02:34:57.729Z,14.33
2019-01-11T02:37:28.428Z,14.27
2019-01-11T02:39:59.133Z,13.00
2019-01-11T02:42:29.815Z,13.83
2019-01-11T02:45:00.570Z,14.10
2019-01-11T02:47:30.924Z,13.30
2019-01-11T02:50:01.292Z,13.57
2019-01-11T02:52:32.172Z,12.17
2019-01-11T02:55:04.071Z,12.10
2019-01-11T02:57:37.487Z,13.00
2019-01-11T03:00:15.137Z,12.77
2019-01-11T03:02:46.835Z,12.53
2019-01-11T03:05:18.162Z,11.60
2019-01-11T03:07:49.545Z,12.27
2019-01-11T03:10:25.016Z,14.97
2019-01-11T03:12:55.678Z,11.60
2019-01-11T03:15:26.239Z,10.00
2019-01-11T03:17:56.795Z,11.67
2019-01-11T03:20:27.049Z,12.20
2019-01-11T03:22:57.739Z,11.93
2019-01-11T03:25:28.550Z,11.13
2019-01-11T03:27:59.487Z,11.27
2019-01-11T03:30:29.869Z,11.10
2019-01-11T03:33:00.580Z,12.13
2019-01-11T03:35:33.894Z,12.00
2019-01-11T03:38:05.770Z,11.53
2019-01-11T03:40:37.248Z,11.20
2019-01-11T03:43:07.712Z,12.87
2019-01-11T03:45:38.980Z,13.37
2019-01-11T03:48:09.656Z,11.27
2019-01-11T03:50:43.355Z,11.30
2019-01-11T03:53:14.046Z,10.53
2019-01-11T03:55:44.747Z,11.47
2019-01-11T03:58:15.348Z,9.43
2019-01-11T04:00:46.286Z,10.90
2019-01-11T04:03:18.584Z,11.40
2019-01-11T04:05:49.935Z,10.40
2019-01-11T04:08:20.533Z,10.13
2019-01-11T04:10:52.009Z,11.00
2019-01-11T04:13:30.441Z,10.17
2019-01-11T04:15:57.619Z,10.87
2019-01-11T04:18:36.625Z,10.63
2019-01-11T04:21:09.325Z,10.93
2019-01-11T04:23:39.720Z,11.50
2019-01-11T04:26:10.323Z,10.77
2019-01-11T04:28:42.605Z,10.57
2019-01-11T04:31:13.500Z,10.40
2019-01-11T04:33:45.386Z,10.90
2019-01-11T04:36:16.592Z,12.47
2019-01-11T04:38:47.178Z,10.43
2019-01-11T04:41:18.153Z,10.70
2019-01-11T04:43:48.627Z,11.07
2019-01-11T04:46:19.392Z,11.40
2019-01-11T04:48:50.027Z,12.50
2019-01-11T04:51:20.624Z,12.47
2019-01-11T04:53:53.444Z,12.30
2019-01-11T04:56:24.998Z,13.27
2019-01-11T04:58:58.629Z,11.77
2019-01-11T05:01:29.211Z,13.10
2019-01-11T05:04:00.015Z,10.67
2019-01-11T05:06:30.663Z,14.20
2019-01-11T05:09:02.070Z,13.77
2019-01-11T05:11:32.931Z,12.83
2019-01-11T05:14:03.645Z,13.23
2019-01-11T05:16:39.459Z,13.37
2019-01-11T05:19:07.206Z,13.80
2019-01-11T05:21:38.272Z,13.70
2019-01-11T05:24:08.773Z,13.67
2019-01-11T05:26:39.763Z,12.73
2019-01-11T05:29:10.503Z,13.50
2019-01-11T05:31:41.174Z,12.63
2019-01-11T05:34:11.891Z,11.57
2019-01-11T05:36:42.358Z,11.90
2019-01-11T05:39:13.192Z,13.00
2019-01-11T05:41:43.793Z,11.47
2019-01-11T05:44:15.831Z,10.80
2019-01-11T05:46:46.833Z,12.00
2019-01-11T05:49:17.227Z,10.70
2019-01-11T05:51:48.310Z,10.70
2019-01-11T05:54:20.085Z,12.03
2019-01-11T05:56:50.676Z,12.10
2019-01-11T05:59:21.817Z,12.20
2019-01-11T06:01:52.038Z,10.07
2019-01-11T06:04:57.784Z,10.40
2019-01-11T06:07:47.440Z,11.60
2019-01-11T06:10:18.636Z,9.80
2019-01-11T06:12:49.738Z,9.53
2019-01-11T06:15:20.678Z,9.70
2019-01-11T06:17:51.496Z,9.47
2019-01-11T06:20:23.159Z,9.33
2019-01-11T06:22:53.594Z,9.13
2019-01-11T06:25:24.180Z,8.10
2019-01-11T06:27:55.603Z,7.70
2019-01-11T06:30:27.318Z,8.57
2019-01-11T06:32:57.700Z,10.53
2019-01-11T06:35:28.193Z,8.37
2019-01-11T06:37:58.750Z,8.37
2019-01-11T06:40:29.515Z,9.00
2019-01-11T06:43:03.587Z,9.80
2019-01-11T06:45:33.210Z,9.07
2019-01-11T06:48:05.137Z,9.10
2019-01-11T06:50:38.589Z,7.57
2019-01-11T06:53:09.509Z,8.60
2019-01-11T06:55:40.403Z,9.90
2019-01-11T06:58:11.231Z,9.20
2019-01-11T07:00:42.563Z,10.70
2019-01-11T07:03:13.110Z,11.50
2019-01-11T07:05:47.787Z,10.30
2019-01-11T07:08:20.355Z,10.87
2019-01-11T07:10:53.049Z,10.90
2019-01-11T07:13:24.909Z,9.97
2019-01-11T07:15:55.235Z,10.50
2019-01-11T07:18:26.641Z,11.83
2019-01-11T07:20:57.967Z,11.17
2019-01-11T07:23:28.797Z,11.20
2019-01-11T07:25:59.505Z,13.00
2019-01-11T07:28:31.801Z,11.53
2019-01-11T07:31:11.866Z,12.13
2019-01-11T07:33:42.875Z,11.23
2019-01-11T07:36:37.690Z,12.20
2019-01-11T07:39:22.566Z,11.03
2019-01-11T07:41:56.620Z,10.47
2019-01-11T07:44:28.044Z,12.53
2019-01-11T07:46:59.032Z,10.90
2019-01-11T07:49:29.852Z,12.03
2019-01-11T07:52:00.782Z,11.43
2019-01-11T07:54:32.005Z,9.73
2019-01-11T07:57:02.520Z,11.47
2019-01-11T07:59:33.597Z,10.90
2019-01-11T08:02:04.609Z,12.07
2019-01-11T08:04:35.604Z,11.57
2019-01-11T08:07:07.024Z,10.80
2019-01-11T08:09:38.004Z,12.10
2019-01-11T08:12:08.723Z,13.40
2019-01-11T08:14:40.343Z,13.10
2019-01-11T08:17:11.173Z,13.27
2019-01-11T08:19:42.295Z,16.50
2019-01-11T08:22:24.674Z,14.90
2019-01-11T08:25:02.884Z,14.80
2019-01-11T08:27:34.130Z,16.43
2019-01-11T08:30:09.098Z,17.53
2019-01-11T08:32:40.208Z,19.10
2019-01-11T08:35:12.427Z,20.73
2019-01-11T08:37:43.221Z,21.47
2019-01-11T08:40:14.859Z,22.90
2019-01-11T08:42:45.881Z,23.40
2019-01-11T08:45:16.512Z,25.37
2019-01-11T08:47:47.737Z,24.47
2019-01-11T08:50:19.849Z,22.97
2019-01-11T08:52:50.305Z,23.93
2019-01-11T08:55:21.195Z,22.93
2019-01-11T08:57:52.043Z,23.47
2019-01-11T09:00:22.555Z,24.10
2019-01-11T09:02:54.638Z,23.87
2019-01-11T09:05:25.061Z,22.83
2019-01-11T09:07:55.764Z,23.07
2019-01-11T09:10:26.968Z,25.40
2019-01-11T09:12:58.414Z,24.33
2019-01-11T09:15:30.461Z,24.00
2019-01-11T09:18:05.502Z,23.20
2019-01-11T09:20:36.010Z,24.07
2019-01-11T09:23:26.129Z,23.47
2019-01-11T09:25:56.622Z,23.00
2019-01-11T09:28:27.741Z,23.50
2019-01-11T09:30:59.102Z,24.13
2019-01-11T09:33:29.737Z,23.17
2019-01-11T09:36:00.727Z,22.83
2019-01-11T09:38:31.253Z,22.70
2019-01-11T09:41:02.640Z,23.03
2019-01-11T09:43:33.400Z,22.47
2019-01-11T09:46:05.605Z,23.80
2019-01-11T09:48:36.090Z,21.97
2019-01-11T09:51:07.473Z,22.20
2019-01-11T09:53:38.697Z,23.10
2019-01-11T09:56:09.105Z,22.57
2019-01-11T09:58:39.575Z,22.03
2019-01-11T10:01:10.083Z,22.93
2019-01-11T10:03:40.761Z,23.90
2019-01-11T10:06:11.522Z,23.10
2019-01-11T10:08:45.276Z,22.03
2019-01-11T10:11:15.811Z,21.73
2019-01-11T10:13:47.966Z,21.33
2019-01-11T10:16:19.115Z,21.60
2019-01-11T10:18:49.571Z,20.83
2019-01-11T10:21:22.479Z,18.27
2019-01-11T10:23:52.474Z,19.10
2019-01-11T10:26:26.066Z,18.70
2019-01-11T10:28:56.450Z,19.93
2019-01-11T10:31:27.939Z,19.47
2019-01-11T10:33:58.981Z,21.23
2019-01-11T10:36:32.605Z,19.37
2019-01-11T10:39:03.184Z,19.10
2019-01-11T10:41:34.240Z,19.40
2019-01-11T10:44:06.464Z,18.77
2019-01-11T10:46:38.027Z,18.00
2019-01-11T10:49:08.917Z,19.50
2019-01-11T10:51:40.906Z,20.00
2019-01-11T10:54:21.400Z,18.97
2019-01-11T10:56:53.302Z,18.70
2019-01-11T10:59:23.788Z,18.77
2019-01-11T11:01:54.709Z,19.10
2019-01-11T11:04:25.734Z,17.83
2019-01-11T11:06:56.784Z,18.60
2019-01-11T11:09:28.155Z,18.87
2019-01-11T11:11:58.902Z,19.00
2019-01-11T11:14:30.248Z,18.90
2019-01-11T11:17:00.582Z,20.00
2019-01-11T11:19:30.990Z,19.63
2019-01-11T11:22:01.461Z,19.83
2019-01-11T11:24:32.258Z,18.40
2019-01-11T11:27:04.171Z,20.43
2019-01-11T11:29:34.526Z,22.23
2019-01-11T11:32:05.508Z,23.83
2019-01-11T11:34:37.923Z,21.13
2019-01-11T11:37:10.934Z,22.43
2019-01-11T11:39:41.596Z,22.27
2019-01-11T11:42:16.915Z,22.47
2019-01-11T11:44:47.547Z,23.90
2019-01-11T11:47:19.794Z,24.43
2019-01-11T11:49:50.223Z,24.17
2019-01-11T11:52:20.673Z,26.63
2019-01-11T11:54:51.961Z,25.53
2019-01-11T11:57:22.919Z,24.23
2019-01-11T11:59:56.537Z,25.57
2019-01-11T12:02:27.339Z,24.57
2019-01-11T12:04:58.963Z,24.03
2019-01-11T12:07:43.820Z,23.10
2019-01-11T12:10:20.437Z,21.50
2019-01-11T12:12:52.132Z,21.63
2019-01-11T12:15:22.694Z,21.90
2019-01-11T12:17:53.416Z,20.90
2019-01-11T12:20:33.977Z,22.40
2019-01-11T12:23:06.391Z,21.70
2019-01-11T12:25:37.252Z,21.83
2019-01-11T12:28:07.856Z,20.77
2019-01-11T12:30:39.017Z,19.20
2019-01-11T12:33:09.560Z,20.23
2019-01-11T12:35:40.298Z,19.60
2019-01-11T12:38:13.774Z,19.83
2019-01-11T12:40:44.544Z,18.87
2019-01-11T12:43:15.350Z,23.17
2019-01-11T12:45:47.274Z,21.60
2019-01-11T12:48:17.736Z,22.27
2019-01-11T12:50:48.786Z,21.53
2019-01-11T12:53:19.484Z,23.37
2019-01-11T12:55:49.942Z,24.00
2019-01-11T12:58:21.022Z,23.70
2019-01-11T13:00:52.470Z,24.40
2019-01-11T13:03:22.937Z,24.40
2019-01-11T13:05:54.224Z,23.83
2019-01-11T13:08:25.421Z,26.27
2019-01-11T13:10:56.585Z,23.13
2019-01-11T13:13:27.416Z,23.40
2019-01-11T13:15:58.583Z,24.10
2019-01-11T13:18:30.910Z,25.27
2019-01-11T13:21:01.675Z,25.50
2019-01-11T13:23:33.479Z,26.70
2019-01-11T13:26:04.931Z,24.67
2019-01-11T13:28:35.832Z,24.40
2019-01-11T13:31:06.142Z,23.13
2019-01-11T13:33:36.537Z,24.30
2019-01-11T13:36:13.328Z,25.17
2019-01-11T13:38:43.678Z,24.60
2019-01-11T13:41:14.883Z,24.47
2019-01-11T13:43:46.376Z,25.20
2019-01-11T13:46:16.809Z,24.57
2019-01-11T13:48:47.476Z,20.53
2019-01-11T13:51:18.056Z,23.40
2019-01-11T13:53:48.560Z,22.27
2019-01-11T13:56:20.308Z,22.17
2019-01-11T13:58:52.012Z,22.50
2019-01-11T14:01:22.968Z,21.80
2019-01-11T14:03:53.863Z,20.80
2019-01-11T14:06:24.155Z,24.13
2019-01-11T14:08:54.835Z,27.97
2019-01-11T14:11:26.109Z,26.40
2019-01-11T14:13:57.214Z,22.93
2019-01-11T14:16:27.662Z,22.53
2019-01-11T14:18:58.511Z,23.47
2019-01-11T14:21:29.440Z,22.53
2019-01-11T14:23:59.741Z,22.60
2019-01-11T14:26:30.582Z,23.13
2019-01-11T14:29:01.514Z,22.10
2019-01-11T14:31:33.206Z,22.47
2019-01-11T14:34:03.908Z,22.07
2019-01-11T14:36:34.327Z,21.53
2019-01-11T14:39:07.107Z,19.60
2019-01-11T14:41:38.255Z,16.90
2019-01-11T14:44:08.875Z,17.30
2019-01-11T14:46:40.456Z,16.13
2019-01-11T14:49:10.945Z,16.10
2019-01-11T14:51:41.398Z,18.63
2019-01-11T14:54:12.867Z,17.17
2019-01-11T14:56:43.657Z,17.40
2019-01-11T14:59:14.164Z,14.27
2019-01-11T15:01:44.882Z,16.50
2019-01-11T15:04:16.448Z,17.97
2019-01-11T15:06:47.018Z,17.17
2019-01-11T15:09:18.060Z,17.20
2019-01-11T15:11:49.437Z,16.33
2019-01-11T15:14:20.774Z,14.90
2019-01-11T15:16:51.533Z,14.13
2019-01-11T15:19:22.740Z,16.77
2019-01-11T15:21:54.471Z,18.43
2019-01-11T15:24:25.416Z,17.10
2019-01-11T15:26:56.261Z,16.80
2019-01-11T15:29:26.644Z,18.33
2019-01-11T15:31:57.358Z,17.00
2019-01-11T15:34:28.781Z,17.80
2019-01-11T15:37:00.305Z,18.60
2019-01-11T15:39:32.595Z,16.33
2019-01-11T15:42:03.585Z,16.43
2019-01-11T15:44:35.381Z,19.97
2019-01-11T15:47:07.299Z,20.80
2019-01-11T15:49:38.331Z,19.10
2019-01-11T15:52:08.715Z,20.40
2019-01-11T15:54:40.375Z,20.07
2019-01-11T15:57:10.859Z,18.10
2019-01-11T16:00:01.192Z,19.57
2019-01-11T16:02:33.489Z,21.00
2019-01-11T16:05:04.457Z,18.90
2019-01-11T16:07:35.035Z,20.93
2019-01-11T16:10:12.675Z,21.33
2019-01-11T16:12:50.061Z,24.17
2019-01-11T16:15:54.585Z,22.17
2019-01-11T16:18:29.825Z,20.27
2019-01-11T16:21:00.376Z,23.57
2019-01-11T16:23:30.893Z,26.40
2019-01-11T16:26:01.740Z,24.37
2019-01-11T16:28:32.667Z,23.80
2019-01-11T16:31:07.285Z,25.77
2019-01-11T16:33:46.791Z,24.13
2019-01-11T16:36:19.182Z,27.63
2019-01-11T16:38:49.737Z,25.70
2019-01-11T16:41:21.841Z,22.93
2019-01-11T16:43:53.390Z,28.37
2019-01-11T16:46:24.710Z,29.23
2019-01-11T16:48:56.457Z,28.10
2019-01-11T16:51:27.381Z,24.93
2019-01-11T16:53:57.848Z,25.33
2019-01-11T16:56:29.011Z,29.00
2019-01-11T16:59:01.274Z,29.63
2019-01-11T17:01:33.909Z,25.67
2019-01-11T17:04:05.792Z,24.57
2019-01-11T17:06:37.027Z,23.80
2019-01-11T17:09:10.075Z,26.67
2019-01-11T17:11:43.870Z,26.60
2019-01-11T17:14:14.550Z,21.97
2019-01-11T17:16:45.363Z,26.83
2019-01-11T17:19:16.226Z,28.03
2019-01-11T17:21:48.302Z,25.20
2019-01-11T17:24:19.107Z,29.70
2019-01-11T17:26:49.736Z,29.10
2019-01-11T17:29:21.095Z,26.03
2019-01-11T17:31:51.914Z,25.63
2019-01-11T17:34:23.916Z,26.20
2019-01-11T17:36:54.773Z,33.37
2019-01-11T17:39:25.901Z,28.30
2019-01-11T17:41:58.183Z,26.97
2019-01-11T17:44:30.929Z,25.60
2019-01-11T17:47:02.814Z,29.63
2019-01-11T17:49:35.177Z,26.90
2019-01-11T17:52:07.674Z,31.17
2019-01-11T17:54:38.785Z,27.47
2019-01-11T17:57:10.165Z,25.90
2019-01-11T17:59:41.220Z,33.30
2019-01-11T18:02:12.384Z,28.40
2019-01-11T18:04:43.617Z,29.13
2019-01-11T18:07:14.739Z,28.80
2019-01-11T18:09:45.934Z,27.67
2019-01-11T18:12:20.107Z,30.40
2019-01-11T18:14:51.411Z,31.90
2019-01-11T18:17:22.371Z,27.47
2019-01-11T18:19:58.572Z,30.27
2019-01-11T18:22:29.133Z,32.90
2019-01-11T18:24:59.983Z,28.23
2019-01-11T18:27:31.110Z,28.23
2019-01-11T18:30:05.557Z,28.10
2019-01-11T18:32:36.953Z,28.50
2019-01-11T18:35:07.941Z,27.73
2019-01-11T18:37:38.893Z,27.53
2019-01-11T18:40:13.902Z,28.70
2019-01-11T18:42:45.314Z,24.93
2019-01-11T18:45:17.194Z,26.37
2019-01-11T18:47:48.440Z,21.47
2019-01-11T18:50:21.599Z,24.00
2019-01-11T18:52:53.866Z,25.90
2019-01-11T18:55:25.644Z,24.40
2019-01-11T18:57:58.432Z,22.67
2019-01-11T19:00:30.369Z,22.70
2019-01-11T19:03:01.701Z,23.93
2019-01-11T19:05:34.771Z,25.10
2019-01-11T19:08:07.314Z,22.20
2019-01-11T19:10:38.892Z,21.80
2019-01-11T19:13:11.855Z,22.50
2019-01-11T19:15:44.442Z,22.50
2019-01-11T19:18:15.507Z,22.50
2019-01-11T19:20:47.825Z,22.13
2019-01-11T19:23:20.629Z,23.00
2019-01-11T19:25:51.909Z,23.70
2019-01-11T19:28:23.901Z,24.37
2019-01-11T19:30:55.460Z,19.40
2019-01-11T19:33:26.778Z,23.30
2019-01-11T19:35:58.314Z,20.77
2019-01-11T19:38:29.738Z,22.30
2019-01-11T19:41:03.074Z,24.00
2019-01-11T19:43:34.855Z,21.40
2019-01-11T19:46:06.478Z,20.70
2019-01-11T19:48:38.329Z,21.43
2019-01-11T19:51:15.368Z,22.57
2019-01-11T19:53:47.717Z,21.13
2019-01-11T19:56:18.803Z,23.40
2019-01-11T19:58:50.499Z,22.60
2019-01-11T20:01:21.797Z,22.97
2019-01-11T20:03:53.519Z,22.50
2019-01-11T20:06:25.013Z,22.00
2019-01-11T20:08:56.205Z,22.50
2019-01-11T20:11:27.249Z,19.60
2019-01-11T20:13:58.458Z,20.77
2019-01-11T20:16:30.566Z,20.90
2019-01-11T20:19:02.360Z,19.27
2019-01-11T20:21:33.593Z,21.30
2019-01-11T20:24:06.207Z,20.93
2019-01-11T20:26:37.841Z,16.63
2019-01-11T20:29:09.253Z,19.83
2019-01-11T20:31:41.013Z,16.97
2019-01-11T20:34:11.977Z,17.77
2019-01-11T20:36:55.935Z,15.63
2019-01-11T20:39:28.697Z,15.97
2019-01-11T20:42:00.926Z,14.00
2019-01-11T20:44:31.910Z,14.37
2019-01-11T20:47:04.016Z,15.37
2019-01-11T20:49:35.439Z,16.00
2019-01-11T20:52:07.126Z,15.60
2019-01-11T20:54:37.917Z,16.13
2019-01-11T20:57:08.700Z,16.03
2019-01-11T20:59:39.458Z,15.77
2019-01-11T21:02:11.170Z,13.23
2019-01-11T21:04:43.793Z,14.80
2019-01-11T21:07:15.660Z,13.43
2019-01-11T21:09:48.439Z,13.40
2019-01-11T21:12:21.335Z,11.50
2019-01-11T21:14:52.892Z,14.00
2019-01-11T21:17:27.055Z,13.63
2019-01-11T21:19:58.401Z,13.33
2019-01-11T21:22:30.569Z,11.73
2019-01-11T21:25:02.502Z,11.47
2019-01-11T21:27:33.367Z,11.83
2019-01-11T21:30:06.469Z,11.27
2019-01-11T21:32:37.729Z,10.53
2019-01-11T21:35:09.590Z,10.13
2019-01-11T21:37:40.471Z,10.53
2019-01-11T21:40:12.977Z,11.43
2019-01-11T21:42:43.654Z,10.70
2019-01-11T21:45:15.658Z,11.03
2019-01-11T21:47:46.380Z,10.90
2019-01-11T21:50:22.819Z,12.70
2019-01-11T21:52:54.214Z,10.83
2019-01-11T21:55:25.234Z,11.53
2019-01-11T21:57:55.883Z,13.07
2019-01-11T22:00:42.000Z,11.00
2019-01-11T22:03:23.055Z,11.37
2019-01-11T22:05:53.807Z,11.40
2019-01-11T22:08:25.251Z,11.50
2019-01-11T22:10:56.011Z,12.37
2019-01-11T22:13:26.941Z,12.00
2019-01-11T22:15:57.339Z,12.20
2019-01-11T22:18:29.271Z,10.30
2019-01-11T22:20:59.871Z,11.87
2019-01-11T22:23:30.978Z,12.30
2019-01-11T22:26:01.509Z,12.17
2019-01-11T22:28:31.860Z,12.80
2019-01-11T22:31:02.863Z,12.93
2019-01-11T22:33:33.799Z,13.00
2019-01-11T22:36:04.858Z,11.67
2019-01-11T22:38:35.647Z,12.10
2019-01-11T22:41:06.282Z,13.23
2019-01-11T22:43:37.815Z,13.83
2019-01-11T22:46:08.135Z,14.77
2019-01-11T22:48:39.014Z,13.33
2019-01-11T22:51:09.671Z,14.50
2019-01-11T22:53:40.037Z,13.87
2019-01-11T22:56:10.464Z,14.13
2019-01-11T22:58:42.052Z,16.77
2019-01-11T23:01:37.670Z,15.97
2019-01-11T23:04:08.110Z,15.20
2019-01-11T23:07:02.209Z,16.33
2019-01-11T23:09:41.508Z,18.00
2019-01-11T23:12:57.987Z,19.97
2019-01-11T23:15:34.467Z,17.03
2019-01-11T23:18:11.150Z,18.20
2019-01-11T23:20:41.828Z,16.40
2019-01-11T23:23:13.070Z,18.60
2019-01-11T23:25:43.421Z,17.60
2019-01-11T23:28:14.537Z,20.50
2019-01-11T23:30:45.237Z,20.00
2019-01-11T23:33:16.106Z,20.03
2019-01-11T23:35:47.320Z,20.33
2019-01-11T23:38:17.907Z,18.60
2019-01-11T23:40:49.771Z,19.07
2019-01-11T23:43:20.456Z,17.43
2019-01-11T23:45:51.194Z,18.83
2019-01-11T23:48:21.826Z,19.47
2019-01-11T23:50:52.598Z,20.03
2019-01-11T23:53:22.800Z,18.93
2019-01-11T23:55:53.618Z,21.07
2019-01-11T23:58:24.222Z,18.17
